Island Park, ID

7:57 PM MDT on March 28, 2015 (GMT -0600)
Centennial Shores | | Change Station
CLOSE
Current Station
Personal Weather Station
Location: Island Park, ID
Elevation: 6295 ft
Nearby Weather Stations

Elev 6295 ft 44.44 °N, 111.46 °W | Updated 8 seconds ago

Partly Cloudy
Partly Cloudy
43.0 °F
Feels Like 39 °F
N
6.0
Wind Variable Wind from WNW
Gusts 10.0 mph

Today
High -- | Low -- °F
--% Chance of Precip.
Yesterday
High -- | Low -- °F
Precip. -- in
7:14 AM 7:47 PM
Waxing Gibbous, 67% visible
Pressure 30.12 in
Visibility -9999.0 miles
Clouds
Windchill 39 °F
Dew Point 18 °F
Humidity 22%
Rainfall -999.00 in
Snow Depth Not available.
UV Not available.
Pollen 9.10 out of 12
Air Quality Not available.
Flu Activity Not available.
METAR KP60 290056Z AUTO 30014G21KT 270V340 04/M11 A3013 RMK AO1 SLP200 T00441106

More Conditions Fewer Conditions

Pressure 30.12 in
Visibility -9999.0 miles
Clouds
Windchill 39 °F
Dew Point 18 °F
Humidity 22%
Rainfall -999.00 in
Snow Depth Not available.
UV Not available.
Pollen 9.10 out of 12
Air Quality Not available.
Flu Activity Not available.
METAR KP60 290056Z AUTO 30014G21KT 270V340 04/M11 A3013 RMK AO1 SLP200 T00441106

More Conditions Fewer Conditions

10-Day Weather Forecast

Almanac

Astronomy

Mar. 28, 2015 Rise Set
Actual Time
Civil Twilight
Nautical Twilight
Astronomical Twilight
Moon
Length of Visible Light
Length of Day
Tomorrow will be .
, % of the Moon is Illuminated

Today's Extremes

State Highs State Lows

Community

WunderPhotos

Upload Photos

1,809,149 photos uploaded!

WunderBlogs® & News

Nearby

Air Quality

  Air Quality AQ Index Pollutant
Not available.

Snow Depth

Station Depth Elevation

Earthquake Activity

City Distance Mag. Time & Date
Minimum magnitude displayed is 2.5.

Coastal Water Temperatures

Place Temperature

Stations

Nearby Weather Stations

Station Location Temp. Windchill Dew Point Humidity Wind Precip. Elev Updated Type